sensor_id;sensor_type;location;lat;lon;timestamp;temperature;humidity
9723;DHT22;4900;49.306;8.500;2023-04-25T00:01:10;11.45;69.95
9723;DHT22;4900;49.306;8.500;2023-04-25T00:03:38;11.48;69.92
9723;DHT22;4900;49.306;8.500;2023-04-25T00:06:04;11.45;70.04
9723;DHT22;4900;49.306;8.500;2023-04-25T00:08:30;11.43;70.22
9723;DHT22;4900;49.306;8.500;2023-04-25T00:10:56;11.39;70.36
9723;DHT22;4900;49.306;8.500;2023-04-25T00:13:22;11.42;70.37
9723;DHT22;4900;49.306;8.500;2023-04-25T00:15:48;11.39;70.46
9723;DHT22;4900;49.306;8.500;2023-04-25T00:18:14;11.42;70.55
9723;DHT22;4900;49.306;8.500;2023-04-25T00:20:39;11.39;70.72
9723;DHT22;4900;49.306;8.500;2023-04-25T00:23:05;11.41;70.75
9723;DHT22;4900;49.306;8.500;2023-04-25T00:25:31;11.42;70.75
9723;DHT22;4900;49.306;8.500;2023-04-25T00:27:57;11.38;70.94
9723;DHT22;4900;49.306;8.500;2023-04-25T00:30:22;11.36;71.17
9723;DHT22;4900;49.306;8.500;2023-04-25T00:32:47;11.29;71.31
9723;DHT22;4900;49.306;8.500;2023-04-25T00:35:14;11.31;71.20
9723;DHT22;4900;49.306;8.500;2023-04-25T00:37:39;11.31;71.24
9723;DHT22;4900;49.306;8.500;2023-04-25T00:40:06;11.31;71.15
9723;DHT22;4900;49.306;8.500;2023-04-25T00:42:34;11.28;71.10
9723;DHT22;4900;49.306;8.500;2023-04-25T00:45:00;11.25;71.25
9723;DHT22;4900;49.306;8.500;2023-04-25T00:47:27;11.25;71.14
9723;DHT22;4900;49.306;8.500;2023-04-25T00:49:53;11.22;71.15
9723;DHT22;4900;49.306;8.500;2023-04-25T00:52:19;11.26;70.99
9723;DHT22;4900;49.306;8.500;2023-04-25T00:54:45;11.22;70.88
9723;DHT22;4900;49.306;8.500;2023-04-25T00:57:11;11.19;70.98
9723;DHT22;4900;49.306;8.500;2023-04-25T00:59:37;11.17;71.00
9723;DHT22;4900;49.306;8.500;2023-04-25T01:02:04;11.15;71.16
9723;DHT22;4900;49.306;8.500;2023-04-25T01:04:30;11.15;71.15
9723;DHT22;4900;49.306;8.500;2023-04-25T01:06:55;11.12;71.10
9723;DHT22;4900;49.306;8.500;2023-04-25T01:09:22;11.11;71.22
9723;DHT22;4900;49.306;8.500;2023-04-25T01:11:48;11.14;71.06
9723;DHT22;4900;49.306;8.500;2023-04-25T01:14:14;11.17;70.90
9723;DHT22;4900;49.306;8.500;2023-04-25T01:16:39;11.11;70.81
9723;DHT22;4900;49.306;8.500;2023-04-25T01:19:08;11.10;71.03
9723;DHT22;4900;49.306;8.500;2023-04-25T01:21:36;11.10;70.90
9723;DHT22;4900;49.306;8.500;2023-04-25T01:24:02;11.04;70.98
9723;DHT22;4900;49.306;8.500;2023-04-25T01:26:27;11.08;70.89
9723;DHT22;4900;49.306;8.500;2023-04-25T01:28:53;11.08;70.90
9723;DHT22;4900;49.306;8.500;2023-04-25T01:31:19;11.07;70.95
9723;DHT22;4900;49.306;8.500;2023-04-25T01:33:45;11.07;71.00
9723;DHT22;4900;49.306;8.500;2023-04-25T01:36:11;11.08;70.90
9723;DHT22;4900;49.306;8.500;2023-04-25T01:38:37;11.08;70.86
9723;DHT22;4900;49.306;8.500;2023-04-25T01:41:03;11.10;71.00
9723;DHT22;4900;49.306;8.500;2023-04-25T01:43:28;11.08;71.04
9723;DHT22;4900;49.306;8.500;2023-04-25T01:45:55;11.06;71.21
9723;DHT22;4900;49.306;8.500;2023-04-25T01:48:20;11.08;71.22
9723;DHT22;4900;49.306;8.500;2023-04-25T01:50:47;11.10;71.30
9723;DHT22;4900;49.306;8.500;2023-04-25T01:53:13;11.12;71.33
9723;DHT22;4900;49.306;8.500;2023-04-25T01:55:39;11.10;71.51
9723;DHT22;4900;49.306;8.500;2023-04-25T01:58:05;11.06;71.81
9723;DHT22;4900;49.306;8.500;2023-04-25T02:00:38;11.07;71.86
9723;DHT22;4900;49.306;8.500;2023-04-25T02:03:05;11.04;71.97
9723;DHT22;4900;49.306;8.500;2023-04-25T02:05:37;11.06;72.19
9723;DHT22;4900;49.306;8.500;2023-04-25T02:08:05;11.06;72.13
9723;DHT22;4900;49.306;8.500;2023-04-25T02:10:32;11.06;72.23
9723;DHT22;4900;49.306;8.500;2023-04-25T02:12:57;11.06;72.28
9723;DHT22;4900;49.306;8.500;2023-04-25T02:15:23;11.03;72.52
9723;DHT22;4900;49.306;8.500;2023-04-25T02:17:49;11.04;72.63
9723;DHT22;4900;49.306;8.500;2023-04-25T02:20:14;11.03;72.70
9723;DHT22;4900;49.306;8.500;2023-04-25T02:22:41;11.06;72.73
9723;DHT22;4900;49.306;8.500;2023-04-25T02:25:08;11.06;72.84
9723;DHT22;4900;49.306;8.500;2023-04-25T02:27:34;11.00;73.09
9723;DHT22;4900;49.306;8.500;2023-04-25T02:30:00;11.01;73.16
9723;DHT22;4900;49.306;8.500;2023-04-25T02:32:26;10.98;73.49
9723;DHT22;4900;49.306;8.500;2023-04-25T02:34:52;10.94;73.67
9723;DHT22;4900;49.306;8.500;2023-04-25T02:37:18;10.91;73.93
9723;DHT22;4900;49.306;8.500;2023-04-25T02:39:44;10.91;73.92
9723;DHT22;4900;49.306;8.500;2023-04-25T02:42:10;10.89;74.24
9723;DHT22;4900;49.306;8.500;2023-04-25T02:44:35;10.91;74.19
9723;DHT22;4900;49.306;8.500;2023-04-25T02:47:01;10.91;74.25
9723;DHT22;4900;49.306;8.500;2023-04-25T02:49:27;10.89;74.34
9723;DHT22;4900;49.306;8.500;2023-04-25T02:51:53;10.87;74.53
9723;DHT22;4900;49.306;8.500;2023-04-25T02:54:18;10.86;74.68
9723;DHT22;4900;49.306;8.500;2023-04-25T02:56:44;10.86;74.56
9723;DHT22;4900;49.306;8.500;2023-04-25T02:59:09;10.86;74.64
9723;DHT22;4900;49.306;8.500;2023-04-25T03:01:34;10.86;74.57
9723;DHT22;4900;49.306;8.500;2023-04-25T03:04:01;10.87;74.43
9723;DHT22;4900;49.306;8.500;2023-04-25T03:06:26;10.87;74.42
9723;DHT22;4900;49.306;8.500;2023-04-25T03:08:52;10.86;74.38
9723;DHT22;4900;49.306;8.500;2023-04-25T03:11:17;10.87;74.44
9723;DHT22;4900;49.306;8.500;2023-04-25T03:13:45;10.87;74.52
9723;DHT22;4900;49.306;8.500;2023-04-25T03:16:10;10.89;74.55
9723;DHT22;4900;49.306;8.500;2023-04-25T03:18:36;10.89;74.46
9723;DHT22;4900;49.306;8.500;2023-04-25T03:21:02;10.87;74.55
9723;DHT22;4900;49.306;8.500;2023-04-25T03:23:27;10.86;74.51
9723;DHT22;4900;49.306;8.500;2023-04-25T03:25:53;10.87;74.51
9723;DHT22;4900;49.306;8.500;2023-04-25T03:28:18;10.86;74.58
9723;DHT22;4900;49.306;8.500;2023-04-25T03:30:44;10.83;74.70
9723;DHT22;4900;49.306;8.500;2023-04-25T03:33:09;10.84;74.64
9723;DHT22;4900;49.306;8.500;2023-04-25T03:35:34;10.84;74.58
9723;DHT22;4900;49.306;8.500;2023-04-25T03:38:00;10.81;74.62
9723;DHT22;4900;49.306;8.500;2023-04-25T03:40:25;10.84;74.55
9723;DHT22;4900;49.306;8.500;2023-04-25T03:42:51;10.81;74.61
9723;DHT22;4900;49.306;8.500;2023-04-25T03:45:16;10.84;74.53
9723;DHT22;4900;49.306;8.500;2023-04-25T03:47:42;10.84;74.53
9723;DHT22;4900;49.306;8.500;2023-04-25T03:50:07;10.83;74.61
9723;DHT22;4900;49.306;8.500;2023-04-25T03:52:33;10.80;74.78
9723;DHT22;4900;49.306;8.500;2023-04-25T03:54:58;10.77;74.96
9723;DHT22;4900;49.306;8.500;2023-04-25T03:57:24;10.79;75.00
9723;DHT22;4900;49.306;8.500;2023-04-25T03:59:49;10.77;75.00
9723;DHT22;4900;49.306;8.500;2023-04-25T04:02:15;10.80;75.03
9723;DHT22;4900;49.306;8.500;2023-04-25T04:04:40;10.76;75.14
9723;DHT22;4900;49.306;8.500;2023-04-25T04:07:05;10.79;75.07
9723;DHT22;4900;49.306;8.500;2023-04-25T04:09:31;10.80;74.97
9723;DHT22;4900;49.306;8.500;2023-04-25T04:11:56;10.79;74.90
9723;DHT22;4900;49.306;8.500;2023-04-25T04:14:22;10.77;74.95
9723;DHT22;4900;49.306;8.500;2023-04-25T04:16:47;10.80;74.95
9723;DHT22;4900;49.306;8.500;2023-04-25T04:19:13;10.80;75.00
9723;DHT22;4900;49.306;8.500;2023-04-25T04:21:38;10.79;75.12
9723;DHT22;4900;49.306;8.500;2023-04-25T04:24:04;10.76;75.19
9723;DHT22;4900;49.306;8.500;2023-04-25T04:26:31;10.76;75.25
9723;DHT22;4900;49.306;8.500;2023-04-25T04:28:57;10.76;75.22
9723;DHT22;4900;49.306;8.500;2023-04-25T04:31:24;10.75;75.25
9723;DHT22;4900;49.306;8.500;2023-04-25T04:33:49;10.75;75.26
9723;DHT22;4900;49.306;8.500;2023-04-25T04:36:16;10.76;75.19
9723;DHT22;4900;49.306;8.500;2023-04-25T04:38:45;10.79;75.10
9723;DHT22;4900;49.306;8.500;2023-04-25T04:41:10;10.77;75.14
9723;DHT22;4900;49.306;8.500;2023-04-25T04:43:36;10.80;75.08
9723;DHT22;4900;49.306;8.500;2023-04-25T04:46:02;10.84;74.92
9723;DHT22;4900;49.306;8.500;2023-04-25T04:48:28;10.86;74.95
9723;DHT22;4900;49.306;8.500;2023-04-25T04:50:54;10.90;74.82
9723;DHT22;4900;49.306;8.500;2023-04-25T04:53:20;10.94;74.73
9723;DHT22;4900;49.306;8.500;2023-04-25T04:55:45;11.00;74.66
9723;DHT22;4900;49.306;8.500;2023-04-25T04:58:11;11.03;74.47
9723;DHT22;4900;49.306;8.500;2023-04-25T05:00:36;11.01;74.40
9723;DHT22;4900;49.306;8.500;2023-04-25T05:03:02;11.10;74.33
9723;DHT22;4900;49.306;8.500;2023-04-25T05:05:27;11.10;74.29
9723;DHT22;4900;49.306;8.500;2023-04-25T05:07:53;11.14;74.23
9723;DHT22;4900;49.306;8.500;2023-04-25T05:10:19;11.11;74.23
9723;DHT22;4900;49.306;8.500;2023-04-25T05:12:46;11.19;74.21
9723;DHT22;4900;49.306;8.500;2023-04-25T05:15:12;11.28;74.14
9723;DHT22;4900;49.306;8.500;2023-04-25T05:17:37;11.34;74.05
9723;DHT22;4900;49.306;8.500;2023-04-25T05:20:08;11.38;73.94
9723;DHT22;4900;49.306;8.500;2023-04-25T05:22:34;11.46;73.77
9723;DHT22;4900;49.306;8.500;2023-04-25T05:25:00;11.56;73.64
9723;DHT22;4900;49.306;8.500;2023-04-25T05:27:26;11.63;73.45
9723;DHT22;4900;49.306;8.500;2023-04-25T05:29:51;11.74;73.13
9723;DHT22;4900;49.306;8.500;2023-04-25T05:32:18;11.84;72.86
9723;DHT22;4900;49.306;8.500;2023-04-25T05:34:43;11.95;72.52
9723;DHT22;4900;49.306;8.500;2023-04-25T05:37:09;12.13;72.26
9723;DHT22;4900;49.306;8.500;2023-04-25T05:39:34;12.21;71.98
9723;DHT22;4900;49.306;8.500;2023-04-25T05:41:59;12.26;71.82
9723;DHT22;4900;49.306;8.500;2023-04-25T05:44:26;12.36;71.57
9723;DHT22;4900;49.306;8.500;2023-04-25T05:46:52;12.39;71.37
9723;DHT22;4900;49.306;8.500;2023-04-25T05:49:17;12.43;71.20
9723;DHT22;4900;49.306;8.500;2023-04-25T05:51:42;12.48;71.15
9723;DHT22;4900;49.306;8.500;2023-04-25T05:54:08;12.46;71.11
9723;DHT22;4900;49.306;8.500;2023-04-25T05:56:33;12.49;70.90
9723;DHT22;4900;49.306;8.500;2023-04-25T05:58:59;12.52;70.77
9723;DHT22;4900;49.306;8.500;2023-04-25T06:01:24;12.55;70.68
9723;DHT22;4900;49.306;8.500;2023-04-25T06:03:50;12.55;70.72
9723;DHT22;4900;49.306;8.500;2023-04-25T06:06:17;12.57;70.73
9723;DHT22;4900;49.306;8.500;2023-04-25T06:08:43;12.56;70.56
9723;DHT22;4900;49.306;8.500;2023-04-25T06:11:08;12.53;70.61
9723;DHT22;4900;49.306;8.500;2023-04-25T06:13:34;12.52;70.60
9723;DHT22;4900;49.306;8.500;2023-04-25T06:16:00;12.52;70.62
9723;DHT22;4900;49.306;8.500;2023-04-25T06:18:26;12.50;70.67
9723;DHT22;4900;49.306;8.500;2023-04-25T06:20:51;12.53;70.65
9723;DHT22;4900;49.306;8.500;2023-04-25T06:23:17;12.60;70.59
9723;DHT22;4900;49.306;8.500;2023-04-25T06:25:42;12.69;70.36
9723;DHT22;4900;49.306;8.500;2023-04-25T06:28:08;12.79;70.13
9723;DHT22;4900;49.306;8.500;2023-04-25T06:30:33;12.84;70.05
9723;DHT22;4900;49.306;8.500;2023-04-25T06:32:59;12.97;69.61
9723;DHT22;4900;49.306;8.500;2023-04-25T06:35:24;13.05;69.38
9723;DHT22;4900;49.306;8.500;2023-04-25T06:37:49;13.14;69.03
9723;DHT22;4900;49.306;8.500;2023-04-25T06:40:16;13.24;68.72
9723;DHT22;4900;49.306;8.500;2023-04-25T06:42:42;13.31;68.63
9723;DHT22;4900;49.306;8.500;2023-04-25T06:45:08;13.44;68.36
9723;DHT22;4900;49.306;8.500;2023-04-25T06:47:34;13.53;68.22
9723;DHT22;4900;49.306;8.500;2023-04-25T06:49:59;13.60;68.19
9723;DHT22;4900;49.306;8.500;2023-04-25T06:52:24;13.59;68.16
9723;DHT22;4900;49.306;8.500;2023-04-25T06:54:50;13.69;67.96
9723;DHT22;4900;49.306;8.500;2023-04-25T06:57:15;13.61;68.15
9723;DHT22;4900;49.306;8.500;2023-04-25T06:59:41;13.60;68.21
9723;DHT22;4900;49.306;8.500;2023-04-25T07:02:06;13.67;68.04
9723;DHT22;4900;49.306;8.500;2023-04-25T07:04:31;13.81;68.29
9723;DHT22;4900;49.306;8.500;2023-04-25T07:06:57;13.91;68.09
9723;DHT22;4900;49.306;8.500;2023-04-25T07:09:22;14.11;67.64
9723;DHT22;4900;49.306;8.500;2023-04-25T07:11:48;14.23;67.71
9723;DHT22;4900;49.306;8.500;2023-04-25T07:14:13;14.33;67.21
9723;DHT22;4900;49.306;8.500;2023-04-25T07:16:39;14.43;67.07
9723;DHT22;4900;49.306;8.500;2023-04-25T07:19:04;14.59;66.60
9723;DHT22;4900;49.306;8.500;2023-04-25T07:21:30;14.59;66.25
9723;DHT22;4900;49.306;8.500;2023-04-25T07:23:57;14.56;66.36
9723;DHT22;4900;49.306;8.500;2023-04-25T07:26:22;14.66;66.08
9723;DHT22;4900;49.306;8.500;2023-04-25T07:28:47;14.56;65.92
9723;DHT22;4900;49.306;8.500;2023-04-25T07:31:16;14.34;65.87
9723;DHT22;4900;49.306;8.500;2023-04-25T07:33:44;14.16;66.06
9723;DHT22;4900;49.306;8.500;2023-04-25T07:36:10;13.90;66.09
9723;DHT22;4900;49.306;8.500;2023-04-25T07:38:36;13.86;65.87
9723;DHT22;4900;49.306;8.500;2023-04-25T07:41:01;13.57;66.30
9723;DHT22;4900;49.306;8.500;2023-04-25T07:43:26;13.47;66.60
9723;DHT22;4900;49.306;8.500;2023-04-25T07:45:52;13.40;67.16
9723;DHT22;4900;49.306;8.500;2023-04-25T07:48:18;13.44;67.15
9723;DHT22;4900;49.306;8.500;2023-04-25T07:50:46;13.39;67.55
9723;DHT22;4900;49.306;8.500;2023-04-25T07:53:11;13.33;67.76
9723;DHT22;4900;49.306;8.500;2023-04-25T07:55:37;13.43;67.61
9723;DHT22;4900;49.306;8.500;2023-04-25T07:58:06;13.57;67.30
9723;DHT22;4900;49.306;8.500;2023-04-25T08:00:31;13.64;67.06
9723;DHT22;4900;49.306;8.500;2023-04-25T08:02:56;13.64;66.76
9723;DHT22;4900;49.306;8.500;2023-04-25T08:05:22;13.52;65.93
9723;DHT22;4900;49.306;8.500;2023-04-25T08:07:47;13.49;65.07
9723;DHT22;4900;49.306;8.500;2023-04-25T08:10:13;13.54;65.13
9723;DHT22;4900;49.306;8.500;2023-04-25T08:12:38;13.63;64.57
9723;DHT22;4900;49.306;8.500;2023-04-25T08:15:05;13.71;63.84
9723;DHT22;4900;49.306;8.500;2023-04-25T08:17:31;13.80;64.01
9723;DHT22;4900;49.306;8.500;2023-04-25T08:19:57;13.97;63.64
9723;DHT22;4900;49.306;8.500;2023-04-25T08:22:22;14.15;63.63
9723;DHT22;4900;49.306;8.500;2023-04-25T08:24:48;14.36;63.43
9723;DHT22;4900;49.306;8.500;2023-04-25T08:27:13;14.57;62.96
9723;DHT22;4900;49.306;8.500;2023-04-25T08:29:39;14.67;61.62
9723;DHT22;4900;49.306;8.500;2023-04-25T08:32:04;14.76;61.43
9723;DHT22;4900;49.306;8.500;2023-04-25T08:34:30;15.14;60.92
9723;DHT22;4900;49.306;8.500;2023-04-25T08:36:55;15.39;60.47
9723;DHT22;4900;49.306;8.500;2023-04-25T08:39:21;15.79;59.91
9723;DHT22;4900;49.306;8.500;2023-04-25T08:41:47;15.94;58.50
9723;DHT22;4900;49.306;8.500;2023-04-25T08:44:13;15.94;57.60
9723;DHT22;4900;49.306;8.500;2023-04-25T08:46:39;16.15;57.25
9723;DHT22;4900;49.306;8.500;2023-04-25T08:49:07;16.23;56.76
9723;DHT22;4900;49.306;8.500;2023-04-25T08:51:36;16.29;56.64
9723;DHT22;4900;49.306;8.500;2023-04-25T08:54:12;16.50;56.05
9723;DHT22;4900;49.306;8.500;2023-04-25T08:56:43;16.67;55.57
9723;DHT22;4900;49.306;8.500;2023-04-25T08:59:10;16.71;55.58
9723;DHT22;4900;49.306;8.500;2023-04-25T09:01:37;16.71;55.37
9723;DHT22;4900;49.306;8.500;2023-04-25T09:04:03;16.64;55.10
9723;DHT22;4900;49.306;8.500;2023-04-25T09:06:29;16.51;55.01
9723;DHT22;4900;49.306;8.500;2023-04-25T09:09:01;16.44;55.20
9723;DHT22;4900;49.306;8.500;2023-04-25T09:11:27;16.57;54.88
9723;DHT22;4900;49.306;8.500;2023-04-25T09:14:10;16.79;54.64
9723;DHT22;4900;49.306;8.500;2023-04-25T09:17:00;16.94;54.88
9723;DHT22;4900;49.306;8.500;2023-04-25T09:21:57;17.08;54.03
9723;DHT22;4900;49.306;8.500;2023-04-25T09:27:20;17.51;52.85
9723;DHT22;4900;49.306;8.500;2023-04-25T09:29:48;17.53;52.26
9723;DHT22;4900;49.306;8.500;2023-04-25T09:32:22;17.98;52.15
9723;DHT22;4900;49.306;8.500;2023-04-25T09:34:50;18.46;51.65
9723;DHT22;4900;49.306;8.500;2023-04-25T09:37:26;18.60;51.43
9723;DHT22;4900;49.306;8.500;2023-04-25T09:39:59;18.81;50.69
9723;DHT22;4900;49.306;8.500;2023-04-25T09:42:29;18.75;50.09
9723;DHT22;4900;49.306;8.500;2023-04-25T09:44:57;18.75;49.79
9723;DHT22;4900;49.306;8.500;2023-04-25T09:47:26;18.63;49.10
9723;DHT22;4900;49.306;8.500;2023-04-25T09:49:54;18.79;49.31
9723;DHT22;4900;49.306;8.500;2023-04-25T09:52:24;18.99;48.11
9723;DHT22;4900;49.306;8.500;2023-04-25T09:54:50;18.98;48.50
9723;DHT22;4900;49.306;8.500;2023-04-25T09:57:19;19.24;48.16
9723;DHT22;4900;49.306;8.500;2023-04-25T09:59:52;19.62;47.89
9723;DHT22;4900;49.306;8.500;2023-04-25T10:02:22;19.98;46.72
9723;DHT22;4900;49.306;8.500;2023-04-25T10:04:50;19.96;45.97
9723;DHT22;4900;49.306;8.500;2023-04-25T10:07:18;19.87;45.57
9723;DHT22;4900;49.306;8.500;2023-04-25T10:09:48;19.83;44.92
9723;DHT22;4900;49.306;8.500;2023-04-25T10:12:16;19.67;45.37
9723;DHT22;4900;49.306;8.500;2023-04-25T10:14:42;19.37;46.02
9723;DHT22;4900;49.306;8.500;2023-04-25T10:17:10;18.95;46.75
9723;DHT22;4900;49.306;8.500;2023-04-25T12:44:24;19.16;45.23
9723;DHT22;4900;49.306;8.500;2023-04-25T12:46:50;19.36;45.31
9723;DHT22;4900;49.306;8.500;2023-04-25T12:49:15;19.23;44.52
9723;DHT22;4900;49.306;8.500;2023-04-25T12:51:40;19.20;43.93
9723;DHT22;4900;49.306;8.500;2023-04-25T12:54:07;19.23;43.45
9723;DHT22;4900;49.306;8.500;2023-04-25T12:56:34;19.41;43.59
9723;DHT22;4900;49.306;8.500;2023-04-25T12:59:00;19.65;43.79
9723;DHT22;4900;49.306;8.500;2023-04-25T13:01:28;19.24;43.16
9723;DHT22;4900;49.306;8.500;2023-04-25T13:03:54;19.00;43.25
9723;DHT22;4900;49.306;8.500;2023-04-25T13:06:20;18.89;43.18
9723;DHT22;4900;49.306;8.500;2023-04-25T13:08:45;18.75;43.22
9723;DHT22;4900;49.306;8.500;2023-04-25T13:11:11;18.57;43.59
9723;DHT22;4900;49.306;8.500;2023-04-25T13:13:37;18.63;43.38
9723;DHT22;4900;49.306;8.500;2023-04-25T13:16:06;18.91;42.82
9723;DHT22;4900;49.306;8.500;2023-04-25T13:18:33;19.34;42.90
9723;DHT22;4900;49.306;8.500;2023-04-25T13:20:59;19.59;42.43
9723;DHT22;4900;49.306;8.500;2023-04-25T13:23:28;19.65;42.06
9723;DHT22;4900;49.306;8.500;2023-04-25T13:25:54;19.90;41.77
9723;DHT22;4900;49.306;8.500;2023-04-25T13:28:23;19.83;40.83
9723;DHT22;4900;49.306;8.500;2023-04-25T13:30:48;19.92;41.10
9723;DHT22;4900;49.306;8.500;2023-04-25T13:33:15;19.76;41.06
9723;DHT22;4900;49.306;8.500;2023-04-25T13:35:41;19.26;40.57
9723;DHT22;4900;49.306;8.500;2023-04-25T13:38:06;19.58;40.70
9723;DHT22;4900;49.306;8.500;2023-04-25T13:40:32;19.83;41.14
9723;DHT22;4900;49.306;8.500;2023-04-25T13:42:58;20.61;41.26
9723;DHT22;4900;49.306;8.500;2023-04-25T13:45:24;21.53;40.26
9723;DHT22;4900;49.306;8.500;2023-04-25T13:47:50;22.24;39.52
9723;DHT22;4900;49.306;8.500;2023-04-25T13:50:16;22.31;37.99
9723;DHT22;4900;49.306;8.500;2023-04-25T13:52:41;22.21;36.95
9723;DHT22;4900;49.306;8.500;2023-04-25T13:55:07;22.06;36.92
9723;DHT22;4900;49.306;8.500;2023-04-25T13:57:34;21.91;36.69
9723;DHT22;4900;49.306;8.500;2023-04-25T13:59:59;21.86;36.83
9723;DHT22;4900;49.306;8.500;2023-04-25T14:02:30;21.65;37.35
9723;DHT22;4900;49.306;8.500;2023-04-25T14:04:55;21.54;37.94
9723;DHT22;4900;49.306;8.500;2023-04-25T14:07:21;21.19;38.51
9723;DHT22;4900;49.306;8.500;2023-04-25T14:09:46;20.83;38.97
9723;DHT22;4900;49.306;8.500;2023-04-25T14:12:12;20.79;39.59
9723;DHT22;4900;49.306;8.500;2023-04-25T14:14:37;20.57;39.77
9723;DHT22;4900;49.306;8.500;2023-04-25T14:17:03;20.12;40.04
9723;DHT22;4900;49.306;8.500;2023-04-25T14:19:29;19.83;40.74
9723;DHT22;4900;49.306;8.500;2023-04-25T14:21:55;19.67;41.07
9723;DHT22;4900;49.306;8.500;2023-04-25T14:24:20;19.10;41.62
9723;DHT22;4900;49.306;8.500;2023-04-25T14:26:46;18.86;42.27
9723;DHT22;4900;49.306;8.500;2023-04-25T14:29:11;18.61;42.84
9723;DHT22;4900;49.306;8.500;2023-04-25T14:31:37;18.30;43.40
9723;DHT22;4900;49.306;8.500;2023-04-25T14:34:04;18.08;44.20
9723;DHT22;4900;49.306;8.500;2023-04-25T14:36:31;17.89;44.90
9723;DHT22;4900;49.306;8.500;2023-04-25T14:38:57;17.54;45.71
9723;DHT22;4900;49.306;8.500;2023-04-25T14:41:24;17.23;46.15
9723;DHT22;4900;49.306;8.500;2023-04-25T14:43:50;17.22;46.53
9723;DHT22;4900;49.306;8.500;2023-04-25T14:46:16;17.15;46.74
9723;DHT22;4900;49.306;8.500;2023-04-25T14:48:41;17.01;46.47
9723;DHT22;4900;49.306;8.500;2023-04-25T14:51:07;16.94;46.66
9723;DHT22;4900;49.306;8.500;2023-04-25T14:53:32;16.94;46.89
9723;DHT22;4900;49.306;8.500;2023-04-25T14:55:57;16.95;46.65
9723;DHT22;4900;49.306;8.500;2023-04-25T14:58:23;16.88;46.14
9723;DHT22;4900;49.306;8.500;2023-04-25T15:00:49;16.77;45.93
9723;DHT22;4900;49.306;8.500;2023-04-25T15:03:16;16.50;45.99
9723;DHT22;4900;49.306;8.500;2023-04-25T15:05:43;16.34;46.25
9723;DHT22;4900;49.306;8.500;2023-04-25T15:08:09;16.32;46.30
9723;DHT22;4900;49.306;8.500;2023-04-25T15:10:35;16.36;46.60
9723;DHT22;4900;49.306;8.500;2023-04-25T15:13:01;16.12;46.90
9723;DHT22;4900;49.306;8.500;2023-04-25T15:15:27;16.32;46.85
9723;DHT22;4900;49.306;8.500;2023-04-25T15:17:53;16.46;47.02
9723;DHT22;4900;49.306;8.500;2023-04-25T15:20:21;16.58;46.99
9723;DHT22;4900;49.306;8.500;2023-04-25T15:22:47;16.77;46.72
9723;DHT22;4900;49.306;8.500;2023-04-25T15:25:14;16.83;46.23
9723;DHT22;4900;49.306;8.500;2023-04-25T15:27:41;16.88;45.96
9723;DHT22;4900;49.306;8.500;2023-04-25T15:30:09;16.92;45.92
9723;DHT22;4900;49.306;8.500;2023-04-25T15:32:36;17.06;45.94
9723;DHT22;4900;49.306;8.500;2023-04-25T15:35:04;17.18;45.82
9723;DHT22;4900;49.306;8.500;2023-04-25T15:37:30;17.27;45.74
9723;DHT22;4900;49.306;8.500;2023-04-25T15:40:10;17.27;45.68
9723;DHT22;4900;49.306;8.500;2023-04-25T15:42:41;17.26;45.66
9723;DHT22;4900;49.306;8.500;2023-04-25T15:45:08;17.11;45.76
9723;DHT22;4900;49.306;8.500;2023-04-25T15:47:35;16.92;45.56
9723;DHT22;4900;49.306;8.500;2023-04-25T15:50:01;16.81;45.76
9723;DHT22;4900;49.306;8.500;2023-04-25T15:52:29;16.65;45.90
9723;DHT22;4900;49.306;8.500;2023-04-25T15:54:57;16.58;45.94
9723;DHT22;4900;49.306;8.500;2023-04-25T15:57:23;16.47;46.10
9723;DHT22;4900;49.306;8.500;2023-04-25T15:59:48;16.26;46.65
9723;DHT22;4900;49.306;8.500;2023-04-25T16:02:15;16.23;46.72
9723;DHT22;4900;49.306;8.500;2023-04-25T16:04:41;16.01;46.37
9723;DHT22;4900;49.306;8.500;2023-04-25T16:07:06;15.95;46.23
9723;DHT22;4900;49.306;8.500;2023-04-25T16:09:34;15.85;46.17
9723;DHT22;4900;49.306;8.500;2023-04-25T16:12:00;15.81;46.31
9723;DHT22;4900;49.306;8.500;2023-04-25T16:14:26;15.79;46.59
9723;DHT22;4900;49.306;8.500;2023-04-25T16:16:52;15.67;47.10
9723;DHT22;4900;49.306;8.500;2023-04-25T16:19:18;15.39;46.98
9723;DHT22;4900;49.306;8.500;2023-04-25T16:21:43;15.38;47.12
9723;DHT22;4900;49.306;8.500;2023-04-25T16:24:09;15.38;47.49
9723;DHT22;4900;49.306;8.500;2023-04-25T16:26:35;15.33;47.84
9723;DHT22;4900;49.306;8.500;2023-04-25T16:29:03;15.29;48.01
9723;DHT22;4900;49.306;8.500;2023-04-25T16:31:29;15.16;48.21
9723;DHT22;4900;49.306;8.500;2023-04-25T16:33:54;15.01;47.69
9723;DHT22;4900;49.306;8.500;2023-04-25T16:36:20;14.92;47.97
9723;DHT22;4900;49.306;8.500;2023-04-25T16:38:46;14.87;47.81
9723;DHT22;4900;49.306;8.500;2023-04-25T16:41:11;14.69;47.66
9723;DHT22;4900;49.306;8.500;2023-04-25T16:43:38;14.50;47.52
9723;DHT22;4900;49.306;8.500;2023-04-25T16:46:04;14.36;47.39
9723;DHT22;4900;49.306;8.500;2023-04-25T16:48:31;14.25;47.80
9723;DHT22;4900;49.306;8.500;2023-04-25T16:50:56;14.42;47.93
9723;DHT22;4900;49.306;8.500;2023-04-25T16:53:22;14.49;48.33
9723;DHT22;4900;49.306;8.500;2023-04-25T16:55:48;14.53;48.73
9723;DHT22;4900;49.306;8.500;2023-04-25T16:58:13;14.57;49.01
9723;DHT22;4900;49.306;8.500;2023-04-25T17:00:39;14.61;48.94
9723;DHT22;4900;49.306;8.500;2023-04-25T17:03:06;14.60;49.09
9723;DHT22;4900;49.306;8.500;2023-04-25T17:05:32;14.59;49.99
9723;DHT22;4900;49.306;8.500;2023-04-25T17:07:58;14.46;51.78
9723;DHT22;4900;49.306;8.500;2023-04-25T17:10:24;14.37;53.44
9723;DHT22;4900;49.306;8.500;2023-04-25T17:12:49;14.40;54.23
9723;DHT22;4900;49.306;8.500;2023-04-25T17:15:15;14.33;54.90
9723;DHT22;4900;49.306;8.500;2023-04-25T17:17:41;14.34;55.46
9723;DHT22;4900;49.306;8.500;2023-04-25T17:20:08;14.34;55.69
9723;DHT22;4900;49.306;8.500;2023-04-25T17:22:34;14.26;56.20
9723;DHT22;4900;49.306;8.500;2023-04-25T17:25:05;14.29;56.22
9723;DHT22;4900;49.306;8.500;2023-04-25T17:27:40;14.16;57.07
9723;DHT22;4900;49.306;8.500;2023-04-25T17:30:06;14.16;56.86
9723;DHT22;4900;49.306;8.500;2023-04-25T17:32:32;14.11;57.00
9723;DHT22;4900;49.306;8.500;2023-04-25T17:34:58;14.08;57.18
9723;DHT22;4900;49.306;8.500;2023-04-25T17:37:24;14.08;57.20
9723;DHT22;4900;49.306;8.500;2023-04-25T17:39:53;14.04;57.35
9723;DHT22;4900;49.306;8.500;2023-04-25T17:42:19;13.98;57.53
9723;DHT22;4900;49.306;8.500;2023-04-25T17:44:44;13.95;57.60
9723;DHT22;4900;49.306;8.500;2023-04-25T17:47:10;13.88;57.89
9723;DHT22;4900;49.306;8.500;2023-04-25T17:49:46;13.80;58.21
9723;DHT22;4900;49.306;8.500;2023-04-25T17:52:24;13.67;58.80
9723;DHT22;4900;49.306;8.500;2023-04-25T17:55:01;13.56;59.02
9723;DHT22;4900;49.306;8.500;2023-04-25T17:57:26;13.52;59.29
9723;DHT22;4900;49.306;8.500;2023-04-25T17:59:52;13.49;59.61
9723;DHT22;4900;49.306;8.500;2023-04-25T18:02:18;13.40;59.96
9723;DHT22;4900;49.306;8.500;2023-04-25T18:04:44;13.33;60.16
9723;DHT22;4900;49.306;8.500;2023-04-25T18:07:10;13.31;60.41
9723;DHT22;4900;49.306;8.500;2023-04-25T18:09:36;13.24;60.60
9723;DHT22;4900;49.306;8.500;2023-04-25T18:12:02;13.16;61.10
9723;DHT22;4900;49.306;8.500;2023-04-25T18:14:28;13.10;61.29
9723;DHT22;4900;49.306;8.500;2023-04-25T18:16:53;13.10;61.60
9723;DHT22;4900;49.306;8.500;2023-04-25T18:19:39;13.05;61.56
9723;DHT22;4900;49.306;8.500;2023-04-25T18:22:05;13.01;61.73
9723;DHT22;4900;49.306;8.500;2023-04-25T18:24:30;12.97;61.84
9723;DHT22;4900;49.306;8.500;2023-04-25T18:26:56;12.96;61.78